createdAt,value
2018-01-15T00:02:07.410Z,15.33
2018-01-15T00:04:36.430Z,15.47
2018-01-15T00:07:04.782Z,15.37
2018-01-15T00:09:33.831Z,15.70
2018-01-15T00:12:02.115Z,14.53
2018-01-15T00:14:30.358Z,15.20
2018-01-15T00:16:58.690Z,14.40
2018-01-15T00:19:26.938Z,15.77
2018-01-15T00:21:55.186Z,15.40
2018-01-15T00:24:23.462Z,14.80
2018-01-15T00:26:51.713Z,15.90
2018-01-15T00:29:19.966Z,15.67
2018-01-15T00:31:48.244Z,15.00
2018-01-15T00:34:16.492Z,15.10
2018-01-15T00:36:44.745Z,15.17
2018-01-15T00:39:13.451Z,15.17
2018-01-15T00:41:41.697Z,16.23
2018-01-15T00:44:10.038Z,16.23
2018-01-15T00:46:38.294Z,14.60
2018-01-15T00:49:06.542Z,14.60
2018-01-15T00:51:34.794Z,14.50
2018-01-15T00:54:03.083Z,15.57
2018-01-15T00:56:31.334Z,14.30
2018-01-15T00:58:59.581Z,15.87
2018-01-15T01:01:28.256Z,14.43
2018-01-15T01:03:56.502Z,14.50
2018-01-15T01:06:24.754Z,15.23
2018-01-15T01:08:53.794Z,15.30
2018-01-15T01:11:22.056Z,15.37
2018-01-15T01:13:50.294Z,14.87
2018-01-15T01:16:18.574Z,13.87
2018-01-15T01:18:46.828Z,13.47
2018-01-15T01:21:15.158Z,14.37
2018-01-15T01:23:43.946Z,14.13
2018-01-15T01:26:12.198Z,14.47
2018-01-15T01:28:40.447Z,15.40
2018-01-15T01:31:08.718Z,13.10
2018-01-15T01:33:36.970Z,15.13
2018-01-15T01:36:05.230Z,15.17
2018-01-15T01:38:33.502Z,15.07
2018-01-15T01:41:01.963Z,14.17
2018-01-15T01:43:30.986Z,15.33
2018-01-15T01:45:59.539Z,16.23
2018-01-15T01:48:28.046Z,15.07
2018-01-15T01:50:56.298Z,13.63
2018-01-15T01:53:24.575Z,14.20
2018-01-15T01:55:52.874Z,13.70
2018-01-15T01:58:21.122Z,15.20
2018-01-15T02:00:49.602Z,14.53
2018-01-15T02:03:18.630Z,14.73
2018-01-15T02:05:46.874Z,13.90
2018-01-15T02:08:15.414Z,13.47
2018-01-15T02:10:43.662Z,12.83
2018-01-15T02:13:11.915Z,13.73
2018-01-15T02:15:40.957Z,14.33
2018-01-15T02:18:09.207Z,14.07
2018-01-15T02:20:37.453Z,14.50
2018-01-15T02:23:05.732Z,14.37
2018-01-15T02:25:34.750Z,13.63
2018-01-15T02:28:03.015Z,13.47
2018-01-15T02:30:32.143Z,14.63
2018-01-15T02:33:00.406Z,14.50
2018-01-15T02:35:29.658Z,14.23
2018-01-15T02:37:57.925Z,14.30
2018-01-15T02:40:26.182Z,12.70
2018-01-15T02:42:54.834Z,13.90
2018-01-15T02:45:23.114Z,14.07
2018-01-15T02:47:51.361Z,15.40
2018-01-15T02:50:19.612Z,14.00
2018-01-15T02:52:48.122Z,14.30
2018-01-15T02:55:17.306Z,14.17
2018-01-15T02:57:45.553Z,13.63
2018-01-15T03:00:13.830Z,12.33
2018-01-15T03:02:42.082Z,13.40
2018-01-15T03:05:10.334Z,14.07
2018-01-15T03:07:38.614Z,14.07
2018-01-15T03:10:07.634Z,13.10
2018-01-15T03:12:35.883Z,14.00
2018-01-15T03:15:04.423Z,13.90
2018-01-15T03:17:32.666Z,13.97
2018-01-15T03:20:01.094Z,12.40
2018-01-15T03:22:29.411Z,12.40
2018-01-15T03:24:57.622Z,14.27
2018-01-15T03:27:25.871Z,13.50
2018-01-15T03:29:54.155Z,14.33
2018-01-15T03:32:22.406Z,13.17
2018-01-15T03:34:51.431Z,13.03
2018-01-15T03:37:20.422Z,13.60
2018-01-15T03:39:48.666Z,14.27
2018-01-15T03:42:16.919Z,13.53
2018-01-15T03:44:46.114Z,14.10
2018-01-15T03:47:14.366Z,13.90
2018-01-15T03:49:42.623Z,13.90
2018-01-15T03:52:11.007Z,13.60
2018-01-15T03:54:39.275Z,14.40
2018-01-15T03:57:07.539Z,13.13
2018-01-15T03:59:35.906Z,12.43
2018-01-15T04:02:04.162Z,13.40
2018-01-15T04:04:32.412Z,12.37
2018-01-15T04:07:00.692Z,13.83
2018-01-15T04:09:28.946Z,13.77
2018-01-15T04:11:57.198Z,12.30
2018-01-15T04:14:25.485Z,13.53
2018-01-15T04:16:53.739Z,13.60
2018-01-15T04:19:21.991Z,13.17
2018-01-15T04:21:51.414Z,13.13
2018-01-15T04:24:19.760Z,13.30
2018-01-15T04:26:47.994Z,13.63
2018-01-15T04:29:16.271Z,14.00
2018-01-15T04:31:44.522Z,14.20
2018-01-15T04:34:12.777Z,13.70
2018-01-15T04:36:41.060Z,14.30
2018-01-15T04:39:09.418Z,12.33
2018-01-15T04:41:37.647Z,13.47
2018-01-15T04:44:06.982Z,12.33
2018-01-15T04:46:35.465Z,14.07
2018-01-15T04:49:03.722Z,14.00
2018-01-15T04:51:32.018Z,14.00
2018-01-15T04:54:00.307Z,13.60
2018-01-15T04:56:28.542Z,13.90
2018-01-15T04:58:56.825Z,14.10
2018-01-15T05:01:25.267Z,12.97
2018-01-15T05:03:53.506Z,13.50
2018-01-15T05:06:22.090Z,13.37
2018-01-15T05:08:50.345Z,14.70
2018-01-15T05:11:18.601Z,12.60
2018-01-15T05:13:46.882Z,13.70
2018-01-15T05:16:15.906Z,13.57
2018-01-15T05:18:44.386Z,13.13
2018-01-15T05:21:12.700Z,14.60
2018-01-15T05:23:40.906Z,14.00
2018-01-15T05:26:09.163Z,14.97
2018-01-15T05:28:37.810Z,13.00
2018-01-15T05:31:06.155Z,13.63
2018-01-15T05:33:34.402Z,13.40
2018-01-15T05:36:02.686Z,15.10
2018-01-15T05:38:30.930Z,13.43
2018-01-15T05:40:59.186Z,14.30
2018-01-15T05:43:27.467Z,15.40
2018-01-15T05:45:56.477Z,16.23
2018-01-15T05:48:24.997Z,15.67
2018-01-15T05:50:53.838Z,14.83
2018-01-15T05:53:22.095Z,15.90
2018-01-15T05:55:50.354Z,14.23
2018-01-15T05:58:18.626Z,15.20
2018-01-15T06:00:47.646Z,15.23
2018-01-15T06:03:15.897Z,14.00
2018-01-15T06:05:44.174Z,15.83
2018-01-15T06:08:12.427Z,15.50
2018-01-15T06:10:40.688Z,16.00
2018-01-15T06:13:09.250Z,14.60
2018-01-15T06:15:37.498Z,16.80
2018-01-15T06:18:05.749Z,16.80
2018-01-15T06:20:34.170Z,16.03
2018-01-15T06:23:02.418Z,15.10
2018-01-15T06:25:31.446Z,16.20
2018-01-15T06:28:00.102Z,15.83
2018-01-15T06:30:29.118Z,16.03
2018-01-15T06:32:57.434Z,15.93
2018-01-15T06:35:25.762Z,16.50
2018-01-15T06:37:54.026Z,15.40
2018-01-15T06:40:22.274Z,15.27
2018-01-15T06:42:50.750Z,18.30
2018-01-15T06:45:19.010Z,15.80
2018-01-15T06:47:47.254Z,16.73
2018-01-15T06:50:15.872Z,16.50
2018-01-15T06:52:44.102Z,17.17
2018-01-15T06:55:12.361Z,17.60
2018-01-15T06:57:41.009Z,16.87
2018-01-15T07:00:09.258Z,16.10
2018-01-15T07:02:37.522Z,17.00
2018-01-15T07:05:05.794Z,18.00
2018-01-15T07:07:34.166Z,16.83
2018-01-15T07:10:03.199Z,18.40
2018-01-15T07:12:31.502Z,19.30
2018-01-15T07:14:59.762Z,19.37
2018-01-15T07:17:28.046Z,19.43
2018-01-15T07:19:57.074Z,18.87
2018-01-15T07:22:26.247Z,18.20
2018-01-15T07:24:54.509Z,18.10
2018-01-15T07:27:22.774Z,18.93
2018-01-15T07:29:51.967Z,18.20
2018-01-15T07:32:20.215Z,19.57
2018-01-15T07:34:48.498Z,16.97
2018-01-15T07:37:17.510Z,17.00
2018-01-15T07:39:45.774Z,19.47
2018-01-15T07:42:14.282Z,18.03
2018-01-15T07:44:43.462Z,18.73
2018-01-15T07:47:11.710Z,19.37
2018-01-15T07:49:40.135Z,16.77
2018-01-15T07:52:08.814Z,18.93
2018-01-15T07:54:37.062Z,19.03
2018-01-15T07:57:05.334Z,18.90
2018-01-15T07:59:33.586Z,20.23
2018-01-15T08:02:01.839Z,19.10
2018-01-15T08:04:30.617Z,19.70
2018-01-15T08:06:58.866Z,20.33
2018-01-15T08:09:27.189Z,20.00
2018-01-15T08:11:55.430Z,21.60
2018-01-15T08:14:24.556Z,19.73
2018-01-15T08:16:53.075Z,18.90
2018-01-15T08:19:21.346Z,19.53
2018-01-15T08:21:50.614Z,19.90
2018-01-15T08:24:18.851Z,19.17
2018-01-15T08:26:47.194Z,21.83
2018-01-15T08:29:15.445Z,20.47
2018-01-15T08:31:43.696Z,21.53
2018-01-15T08:34:11.978Z,19.03
2018-01-15T08:36:40.234Z,19.87
2018-01-15T08:39:09.422Z,19.07
2018-01-15T08:41:38.466Z,20.80
2018-01-15T08:44:06.718Z,19.90
2018-01-15T08:46:34.994Z,20.20
2018-01-15T08:49:04.866Z,21.50
2018-01-15T08:51:34.686Z,22.00
2018-01-15T08:54:03.834Z,21.20
2018-01-15T08:56:32.111Z,20.97
2018-01-15T08:59:00.360Z,21.20
2018-01-15T09:01:28.623Z,20.87
2018-01-15T09:03:58.210Z,20.13
2018-01-15T09:06:26.459Z,21.13
2018-01-15T09:08:54.706Z,22.67
2018-01-15T09:11:24.418Z,20.10
2018-01-15T09:13:52.670Z,21.47
2018-01-15T09:16:20.918Z,20.63
2018-01-15T09:18:49.221Z,22.03
2018-01-15T09:21:17.474Z,21.60
2018-01-15T09:23:45.787Z,20.47
2018-01-15T09:26:14.071Z,22.73
2018-01-15T09:28:42.316Z,21.70
2018-01-15T09:31:10.564Z,21.93
2018-01-15T09:33:38.940Z,22.07
2018-01-15T09:36:08.146Z,22.87
2018-01-15T09:38:36.407Z,22.67
2018-01-15T09:41:04.688Z,22.90
2018-01-15T09:43:32.926Z,21.63
2018-01-15T09:46:01.178Z,19.87
2018-01-15T09:48:30.217Z,21.90
2018-01-15T09:50:58.530Z,22.23
2018-01-15T09:53:26.874Z,23.77
2018-01-15T09:55:55.412Z,25.70
2018-01-15T09:58:24.430Z,22.10
2018-01-15T10:00:52.690Z,23.60
2018-01-15T10:03:21.730Z,23.43
2018-01-15T10:05:49.982Z,21.27
2018-01-15T10:08:18.242Z,25.07
2018-01-15T10:10:46.518Z,23.37
2018-01-15T10:13:15.562Z,20.83
2018-01-15T10:15:43.815Z,23.13
2018-01-15T10:18:12.342Z,22.40
2018-01-15T10:20:40.612Z,22.10
2018-01-15T10:23:08.862Z,18.77
2018-01-15T10:25:37.141Z,23.87
2018-01-15T10:28:06.304Z,22.93
2018-01-15T10:30:34.570Z,22.93
2018-01-15T10:33:02.853Z,23.20
2018-01-15T10:35:31.110Z,22.43
2018-01-15T10:37:59.358Z,21.67
2018-01-15T10:40:28.031Z,24.00
2018-01-15T10:42:56.285Z,22.93
2018-01-15T10:45:24.714Z,22.97
2018-01-15T10:47:52.995Z,22.87
2018-01-15T10:50:21.356Z,22.53
2018-01-15T10:52:49.586Z,23.23
2018-01-15T10:55:17.867Z,24.77
2018-01-15T10:57:46.334Z,23.30
2018-01-15T11:00:14.594Z,23.10
2018-01-15T11:02:42.979Z,24.00
2018-01-15T11:05:11.325Z,22.60
2018-01-15T11:07:40.742Z,22.40
2018-01-15T11:10:09.926Z,23.53
2018-01-15T11:12:39.266Z,24.60
2018-01-15T11:15:08.535Z,21.50
2018-01-15T11:17:37.258Z,21.20
2018-01-15T11:20:05.528Z,22.47
2018-01-15T11:22:33.766Z,23.23
2018-01-15T11:25:03.090Z,23.30
2018-01-15T11:27:31.343Z,22.80
2018-01-15T11:30:00.745Z,24.03
2018-01-15T11:32:29.253Z,21.97
2018-01-15T11:34:58.548Z,22.80
2018-01-15T11:37:26.794Z,23.03
2018-01-15T11:39:55.070Z,22.37
2018-01-15T11:42:23.326Z,23.00
2018-01-15T11:44:52.338Z,23.27
2018-01-15T11:47:21.034Z,22.87
2018-01-15T11:49:50.198Z,22.83
2018-01-15T11:52:19.394Z,21.80
2018-01-15T11:54:47.738Z,23.83
2018-01-15T11:57:16.023Z,23.30
2018-01-15T11:59:44.586Z,24.03
2018-01-15T12:02:12.878Z,22.80
2018-01-15T12:04:41.107Z,21.60
2018-01-15T12:07:09.363Z,25.40
2018-01-15T12:09:38.291Z,22.93
2018-01-15T12:12:07.674Z,22.80
2018-01-15T12:14:36.009Z,23.27
2018-01-15T12:17:04.271Z,22.67
2018-01-15T12:19:32.516Z,22.10
2018-01-15T12:22:00.775Z,21.40
2018-01-15T12:24:29.050Z,22.57
2018-01-15T12:26:57.425Z,22.40
2018-01-15T12:29:25.724Z,23.00
2018-01-15T12:31:54.162Z,23.53
2018-01-15T12:34:22.406Z,23.47
2018-01-15T12:36:50.662Z,22.43
2018-01-15T12:39:18.934Z,23.37
2018-01-15T12:41:47.185Z,22.57
2018-01-15T12:44:15.438Z,22.20
2018-01-15T12:46:45.394Z,22.40
2018-01-15T12:49:13.699Z,23.70
2018-01-15T12:51:41.964Z,23.97
2018-01-15T12:54:10.652Z,23.03
2018-01-15T12:56:38.902Z,21.80
2018-01-15T12:59:07.154Z,23.00
2018-01-15T13:01:35.543Z,23.40
2018-01-15T13:04:03.800Z,24.47
2018-01-15T13:06:43.770Z,22.33
2018-01-15T13:09:12.030Z,23.37
2018-01-15T13:11:41.055Z,21.80
2018-01-15T13:14:09.577Z,22.57
2018-01-15T13:16:37.823Z,22.40
2018-01-15T13:19:06.070Z,24.37
2018-01-15T13:21:35.113Z,24.20
2018-01-15T13:24:03.362Z,21.70
2018-01-15T13:26:32.222Z,24.60
2018-01-15T13:29:01.276Z,23.43
2018-01-15T13:31:29.526Z,22.67
2018-01-15T13:33:57.774Z,24.60
2018-01-15T13:36:26.167Z,23.53
2018-01-15T13:38:54.421Z,22.30
2018-01-15T13:41:22.710Z,22.67
2018-01-15T13:43:51.863Z,24.10
2018-01-15T13:46:20.098Z,23.50
2018-01-15T13:48:49.518Z,22.70
2018-01-15T13:51:17.779Z,23.40
2018-01-15T13:53:46.030Z,24.00
2018-01-15T13:56:14.282Z,23.53
2018-01-15T13:58:42.702Z,22.80
2018-01-15T14:01:11.792Z,25.00
2018-01-15T14:03:40.274Z,23.17
2018-01-15T14:06:08.605Z,23.40
2018-01-15T14:08:36.854Z,23.73
2018-01-15T14:11:05.171Z,24.27
2018-01-15T14:13:36.246Z,23.23
2018-01-15T14:16:05.258Z,23.33
2018-01-15T14:18:33.511Z,23.27
2018-01-15T14:21:02.351Z,23.53
2018-01-15T14:23:32.526Z,24.10
2018-01-15T14:26:01.551Z,23.97
2018-01-15T14:28:30.746Z,23.73
2018-01-15T14:31:00.707Z,24.20
2018-01-15T14:33:40.061Z,23.80
2018-01-15T14:36:10.678Z,24.70
2018-01-15T14:38:39.445Z,25.17
2018-01-15T14:41:07.700Z,24.50
2018-01-15T14:43:36.157Z,23.10
2018-01-15T14:46:05.450Z,23.83
2018-01-15T14:48:34.531Z,23.97
2018-01-15T14:51:02.845Z,25.60
2018-01-15T14:53:31.773Z,24.30
2018-01-15T14:56:00.020Z,22.57
2018-01-15T14:58:28.557Z,23.10
2018-01-15T15:00:56.922Z,22.70
2018-01-15T15:03:25.194Z,24.23
2018-01-15T15:05:53.442Z,23.80
2018-01-15T15:08:21.789Z,23.47
2018-01-15T15:10:50.914Z,21.20
2018-01-15T15:13:20.726Z,23.77
2018-01-15T15:15:50.030Z,24.13
2018-01-15T15:18:18.282Z,23.00
2018-01-15T15:20:46.539Z,22.57
2018-01-15T15:23:15.803Z,22.73
2018-01-15T15:25:44.053Z,23.00
2018-01-15T15:28:12.305Z,23.33
2018-01-15T15:30:40.582Z,20.33
2018-01-15T15:33:09.645Z,21.93
2018-01-15T15:35:37.907Z,18.37
2018-01-15T15:38:06.182Z,19.90
2018-01-15T15:40:34.518Z,21.97
2018-01-15T15:43:03.526Z,21.73
2018-01-15T15:45:31.861Z,22.27
2018-01-15T15:48:00.111Z,22.10
2018-01-15T15:50:28.388Z,22.17
2018-01-15T15:52:56.969Z,21.83
2018-01-15T15:55:25.227Z,21.13
2018-01-15T15:57:53.461Z,20.03
2018-01-15T16:00:21.742Z,20.80
2018-01-15T16:02:50.761Z,22.60
2018-01-15T16:05:19.161Z,21.87
2018-01-15T16:07:47.656Z,22.00
2018-01-15T16:10:15.894Z,21.57
2018-01-15T16:12:44.142Z,20.97
2018-01-15T16:15:12.485Z,21.07
2018-01-15T16:17:40.868Z,22.20
2018-01-15T16:20:09.098Z,21.23
2018-01-15T16:22:49.342Z,21.57
2018-01-15T16:25:17.794Z,21.80
2018-01-15T16:27:46.055Z,20.57
2018-01-15T16:30:14.330Z,22.90
2018-01-15T16:32:42.583Z,19.83
2018-01-15T16:35:11.002Z,20.90
2018-01-15T16:37:39.283Z,21.03
2018-01-15T16:40:07.645Z,22.07
2018-01-15T16:42:35.886Z,22.47
2018-01-15T16:45:04.334Z,21.53
2018-01-15T16:47:32.590Z,21.37
2018-01-15T16:50:07.343Z,21.80
2018-01-15T16:52:37.590Z,22.20
2018-01-15T16:55:05.846Z,23.70
2018-01-15T16:57:34.920Z,22.77
2018-01-15T17:00:04.687Z,24.13
2018-01-15T17:02:32.930Z,23.70
2018-01-15T17:05:01.472Z,24.43
2018-01-15T17:07:29.781Z,24.87
2018-01-15T17:09:58.024Z,23.00
2018-01-15T17:12:26.330Z,22.43
2018-01-15T17:14:54.582Z,21.47
2018-01-15T17:17:22.829Z,22.50
2018-01-15T17:19:51.106Z,22.40
2018-01-15T17:22:19.349Z,21.57
2018-01-15T17:24:48.370Z,21.40
2018-01-15T17:27:17.194Z,23.53
2018-01-15T17:29:45.479Z,23.23
2018-01-15T17:32:13.875Z,22.47
2018-01-15T17:34:42.142Z,23.80
2018-01-15T17:37:10.402Z,20.80
2018-01-15T17:39:38.654Z,21.93
2018-01-15T17:42:06.934Z,22.00
2018-01-15T17:44:35.177Z,19.77
2018-01-15T17:47:04.198Z,18.90
2018-01-15T17:49:33.118Z,21.83
2018-01-15T17:52:01.371Z,21.17
2018-01-15T17:54:29.626Z,19.33
2018-01-15T17:56:57.898Z,20.00
2018-01-15T17:59:26.174Z,20.37
2018-01-15T18:01:55.724Z,18.93
2018-01-15T18:04:24.058Z,20.83
2018-01-15T18:06:52.403Z,19.63
2018-01-15T18:09:20.786Z,20.20
2018-01-15T18:11:49.263Z,18.37
2018-01-15T18:14:17.522Z,18.67
2018-01-15T18:16:45.779Z,18.70
2018-01-15T18:19:14.074Z,18.23
2018-01-15T18:21:42.329Z,20.60
2018-01-15T18:24:11.860Z,20.50
2018-01-15T18:26:40.135Z,19.63
2018-01-15T18:29:08.387Z,18.00
2018-01-15T18:31:36.847Z,19.60
2018-01-15T18:34:05.397Z,19.10
2018-01-15T18:36:33.870Z,19.53
2018-01-15T18:39:02.255Z,17.90
2018-01-15T18:41:30.666Z,18.30
2018-01-15T18:43:59.218Z,18.83
2018-01-15T18:46:27.454Z,19.67
2018-01-15T18:48:57.949Z,18.00
2018-01-15T18:51:26.970Z,17.73
2018-01-15T18:53:55.218Z,18.63
2018-01-15T18:56:23.562Z,17.00
2018-01-15T18:58:51.829Z,17.53
2018-01-15T19:01:20.066Z,17.27
2018-01-15T19:03:48.521Z,14.90
2018-01-15T19:06:17.834Z,16.50
2018-01-15T19:08:46.927Z,19.37
2018-01-15T19:11:15.206Z,18.70
2018-01-15T19:13:44.229Z,17.73
2018-01-15T19:16:12.546Z,18.90
2018-01-15T19:18:41.014Z,17.30
2018-01-15T19:21:10.423Z,18.20
2018-01-15T19:23:38.655Z,17.37
2018-01-15T19:26:06.938Z,18.40
2018-01-15T19:28:35.190Z,18.10
2018-01-15T19:31:04.211Z,15.70
2018-01-15T19:33:32.493Z,18.13
2018-01-15T19:39:05.581Z,16.20
2018-01-15T19:41:35.624Z,16.70
2018-01-15T19:44:09.638Z,15.93
2018-01-15T19:46:43.676Z,15.83
2018-01-15T19:49:17.675Z,15.37
2018-01-15T19:51:51.698Z,14.40
2018-01-15T19:54:25.942Z,14.60
2018-01-15T19:57:00.856Z,14.87
2018-01-15T19:59:34.834Z,15.27
2018-01-15T20:02:08.659Z,15.33
2018-01-15T20:04:42.478Z,13.83
2018-01-15T20:07:16.658Z,15.17
2018-01-15T20:09:50.896Z,14.83
2018-01-15T20:12:19.141Z,15.20
2018-01-15T20:14:47.394Z,14.10
2018-01-15T20:17:15.685Z,13.53
2018-01-15T20:19:43.940Z,12.90
2018-01-15T20:22:12.394Z,13.90
2018-01-15T20:24:40.674Z,13.73
2018-01-15T20:27:08.957Z,13.60
2018-01-15T20:29:37.181Z,13.20
2018-01-15T20:32:05.687Z,12.67
2018-01-15T20:34:33.942Z,12.60
2018-01-15T20:37:02.195Z,11.50
2018-01-15T20:39:30.474Z,11.83
2018-01-15T20:41:59.490Z,11.17
2018-01-15T20:44:27.744Z,10.80
2018-01-15T20:46:56.018Z,10.63
2018-01-15T20:49:24.270Z,8.63
2018-01-15T20:51:52.514Z,11.30
2018-01-15T20:54:21.398Z,9.83
2018-01-15T20:56:49.642Z,9.13
2018-01-15T20:59:17.901Z,9.37
2018-01-15T21:01:46.166Z,10.07
2018-01-15T21:04:14.424Z,10.20
2018-01-15T21:06:43.988Z,10.80
2018-01-15T21:09:12.581Z,9.83
2018-01-15T21:11:40.827Z,8.70
2018-01-15T21:14:09.167Z,8.23
2018-01-15T21:16:37.822Z,9.00
2018-01-15T21:19:06.074Z,8.50
2018-01-15T21:21:35.095Z,7.80
2018-01-15T21:24:03.350Z,9.23
2018-01-15T21:26:31.586Z,6.60
2018-01-15T21:28:59.830Z,9.20
2018-01-15T21:31:28.103Z,7.90
2018-01-15T21:33:56.341Z,8.20
2018-01-15T21:36:25.346Z,7.70
2018-01-15T21:38:55.093Z,8.57
2018-01-15T21:41:23.334Z,7.27
2018-01-15T21:43:52.346Z,7.17
2018-01-15T21:46:20.630Z,8.33
2018-01-15T21:48:48.867Z,8.00
2018-01-15T21:51:17.873Z,9.53
2018-01-15T21:53:46.146Z,6.27
2018-01-15T21:56:15.166Z,7.27
2018-01-15T21:58:46.558Z,7.63
2018-01-15T22:01:15.018Z,6.87
2018-01-15T22:03:43.254Z,7.07
2018-01-15T22:06:11.498Z,4.77
2018-01-15T22:08:39.803Z,7.47
2018-01-15T22:11:08.490Z,7.60
2018-01-15T22:13:36.730Z,6.83
2018-01-15T22:16:04.998Z,4.53
2018-01-15T22:18:33.242Z,5.50
2018-01-15T22:21:01.485Z,6.90
2018-01-15T22:23:30.181Z,7.37
2018-01-15T22:25:58.425Z,5.97
2018-01-15T22:28:26.665Z,5.63
2018-01-15T22:30:54.938Z,5.30
2018-01-15T22:33:23.174Z,4.37
2018-01-15T22:35:51.416Z,5.33
2018-01-15T22:38:19.674Z,3.37
2018-01-15T22:40:47.914Z,4.90
2018-01-15T22:43:16.155Z,4.80
2018-01-15T22:45:44.631Z,5.00
2018-01-15T22:48:12.874Z,4.20
2018-01-15T22:50:41.115Z,4.10
2018-01-15T22:53:10.148Z,3.83
2018-01-15T22:55:38.384Z,3.10
2018-01-15T22:58:07.390Z,3.17
2018-01-15T23:00:35.746Z,3.40
2018-01-15T23:03:03.981Z,3.50
2018-01-15T23:05:32.222Z,3.60
2018-01-15T23:08:01.454Z,3.30
2018-01-15T23:10:29.744Z,2.77
2018-01-15T23:12:58.278Z,3.20
2018-01-15T23:15:27.311Z,3.03
2018-01-15T23:17:55.556Z,3.20
2018-01-15T23:20:23.790Z,3.20
2018-01-15T23:22:52.054Z,1.77
2018-01-15T23:25:20.298Z,3.00
2018-01-15T23:27:48.555Z,1.83
2018-01-15T23:30:17.893Z,2.63
2018-01-15T23:32:46.130Z,2.57
2018-01-15T23:35:14.568Z,1.70
2018-01-15T23:37:42.830Z,2.57
2018-01-15T23:40:11.070Z,2.63
2018-01-15T23:42:40.082Z,2.80
2018-01-15T23:45:08.458Z,2.07
2018-01-15T23:47:36.727Z,2.63
2018-01-15T23:50:04.965Z,2.73
2018-01-15T23:52:33.666Z,2.47
2018-01-15T23:55:01.905Z,2.47
2018-01-15T23:57:30.150Z,2.50
2018-01-15T23:59:58.459Z,2.77
